• Join FlightAware (Why Join?)
  • Login
  • US Flag 
07:26PM EST


 

Airport Tracker/Info


-or-


 

Live Flight TrackerFlight Track Log ✈ AAY863 ✈ 05-Jun-2014 ✈ KCID - KPIE

Flight Track Log - Related Links

Times and Time Zones

All times are in EDT time to prevent confusion due to time zone crossing. See the AAY863 flight status page for this flight to view local times or setup timezone preferences in your user account.

Time Position Orientation Groundspeed Altitude Reporting Facility
EDT Latitude Longitude Course Direction KTS MPH feet Rate Location/Type
06:29PM 41.8556 -91.6172 122° Southeast 246 283 4,000  Level Chicago Center
06:30PM 41.7908 -91.6175 180° South 239 275 5,800 1,920 Climbing Chicago Center
06:31PM 41.7147 -91.6097 176° South 270 311 8,000 2,280 Climbing Chicago Center
06:32PM 41.6167 -91.6144 182° South 294 338 10,600 1,740 Climbing Chicago Center
06:33PM 41.5222 -91.6053 176° South 347 399 11,700 1,560 Climbing Chicago Center
06:34PM 41.3477 -91.2225 122° Southeast  Level FlightAware Approximate
06:34PM 41.4589 -91.4897 126° Southeast 392 451 13,900  Level Chicago Center
06:35PM 41.4075 -91.3569 117° Southeast 403 464 16,100 2,400 Climbing Chicago Center
06:36PM 41.3403 -91.1989 119° Southeast 419 482 19,000 1,860 Climbing Chicago Center
06:37PM 41.2803 -91.0614 120° Southeast 427 491 20,000 1,080 Climbing Chicago Center
06:38PM 41.2167 -90.9147 120° Southeast 453 521 21,300 1,320 Climbing Chicago Center
06:39PM 41.1503 -90.7656 121° Southeast 465 535 22,800 1,320 Climbing Chicago Center
06:40PM 41.0814 -90.6125 121° Southeast 478 550 24,100 1,200 Climbing Chicago Center
06:41PM 41.0108 -90.4564 121° Southeast 488 562 25,400 1,440 Climbing Chicago Center
06:42PM 40.9272 -90.2681 120° Southeast 492 566 27,100 1,200 Climbing Chicago Center
06:43PM 40.8556 -90.1114 121° Southeast 491 565 28,000 960 Climbing Chicago Center
06:44PM 40.7850 -89.9583 121° Southeast 490 564 29,100 1,020 Climbing Chicago Center
06:45PM 40.7153 -89.8064 121° Southeast 490 564 30,200 960 Climbing Chicago Center
06:46PM 40.6428 -89.6506 121° Southeast 493 567 31,100 960 Climbing Chicago Center
06:47PM 40.5658 -89.4853 121° Southeast 490 564 32,300 900 Climbing Chicago Center
06:48PM 40.4953 -89.3336 121° Southeast 486 559 33,000 300 Climbing Chicago Center
06:49PM 40.4258 -89.1853 122° Southeast 482 555 33,000  Level Chicago Center
06:50PM 40.3553 -89.0372 122° Southeast 479 551 33,000  Level Chicago Center
06:53PM 40.1947 -88.6936 121° Southeast 482 555 33,000  Level Indianapolis Center
06:54PM 40.1253 -88.5464 122° Southeast 480 552 33,000  Level Indianapolis Center
06:55PM 40.0558 -88.4011 122° Southeast 477 549 33,000  Level Indianapolis Center
06:56PM 39.9953 -88.2692 121° Southeast 477 549 33,000  Level Kansas City Center
06:57PM 39.9247 -88.1219 122° Southeast 477 549 33,000  Level Kansas City Center
06:58PM 39.8503 -87.9717 123° Southeast 477 549 33,000  Level Kansas City Center
06:59PM 39.7633 -87.7967 123° Southeast 477 549 33,000  Level Kansas City Center
07:00PM 39.6906 -87.6503 123° Southeast 478 550 33,000  Level Kansas City Center
07:01PM 39.6194 -87.5036 122° Southeast 478 550 33,000  Level Kansas City Center
07:02PM 39.5128 -87.4058 145° Southeast 459 528 33,000  Level Indianapolis Center
07:03PM 39.3697 -87.3533 164° South 449 517 33,000  Level Indianapolis Center
07:04PM 39.2494 -87.3081 164° South 449 517 33,000  Level Indianapolis Center
07:05PM 39.1292 -87.2644 164° South 450 518 33,000  Level Indianapolis Center
07:06PM 39.0067 -87.2200 164° South 454 522 33,000  Level Indianapolis Center
07:07PM 38.8822 -87.1739 164° South 458 527 33,000  Level Indianapolis Center
07:08PM 38.7339 -87.1206 164° South 458 527 33,000  Level Indianapolis Center
07:09PM 38.6086 -87.0750 164° South 461 531 33,000  Level Indianapolis Center
07:10PM 38.4844 -87.0297 164° South 461 531 33,000  Level Indianapolis Center
07:11PM 38.3656 -86.9875 164° South 461 531 33,000  Level Indianapolis Center
07:12PM 38.2258 -86.9356 164° South 462 532 33,000  Level Indianapolis Center
07:13PM 38.1000 -86.8883 164° South 465 535 33,000  Level Indianapolis Center
07:14PM 37.9775 -86.8439 164° South 461 531 33,000  Level Indianapolis Center
07:15PM 37.8539 -86.7975 163° South 461 531 33,000  Level Indianapolis Center
07:17PM 37.7278 -86.7519 164° South 465 535 33,000  Level Indianapolis Center
07:18PM 37.6025 -86.7069 164° South 466 536 33,000  Level Indianapolis Center
07:19PM 37.4564 -86.6531 164° South 465 535 33,000  Level Indianapolis Center
07:20PM 37.3306 -86.6103 165° South 465 535 33,000  Level Indianapolis Center
07:21PM 37.2053 -86.5631 163° South 465 535 33,000  Level Indianapolis Center
07:22PM 37.0792 -86.5178 164° South 465 535 33,000  Level Indianapolis Center
07:23PM 36.9544 -86.4747 165° South 464 534 33,000  Level Indianapolis Center
07:24PM 36.8283 -86.4294 164° South 464 534 33,000  Level Indianapolis Center
07:25PM 36.7025 -86.3842 164° South 464 534 33,000  Level Indianapolis Center
07:26PM 36.5561 -86.3328 164° South 464 534 33,000  Level Indianapolis Center
07:27PM 36.4292 -86.2892 165° South 464 534 33,000  Level Indianapolis Center
07:28PM 36.3019 -86.2442 164° South 464 534 33,000  Level Indianapolis Center
07:29PM 36.1767 -86.2019 165° South 464 534 33,000  Level Indianapolis Center
07:30PM 36.0539 -86.1592 164° South 458 527 33,000  Level Indianapolis Center
07:31PM 35.9333 -86.1167 164° South 449 517 33,000  Level Indianapolis Center
07:32PM 35.8108 -86.0750 165° South 449 517 33,000  Level Indianapolis Center
07:33PM 35.6294 -86.0119 164° South 450 518 33,000  Level Memphis Center
07:35PM 35.4997 -85.9686 165° South 450 518 33,000  Level Memphis Center
07:36PM 35.3814 -85.9275 164° South 447 514 33,000  Level Memphis Center
07:37PM 35.2603 -85.8875 165° South 447 514 33,000  Level Memphis Center
07:38PM 35.1392 -85.8444 164° South 450 518 33,000  Level Memphis Center
07:39PM 35.0169 -85.8031 164° South 452 520 33,000  Level Memphis Center
07:40PM 34.8706 -85.7528 164° South 453 521 33,000  Level Memphis Center
07:41PM 34.7472 -85.7331 173° South 454 522 33,000  Level Memphis Center
07:42PM 34.6214 -85.7478 185° South 456 525 33,000  Level Memphis Center
07:43PM 34.4906 -85.7661 187° South 452 520 33,000  Level Memphis Center
07:44PM 34.3647 -85.7850 187° South 452 520 33,000  Level Memphis Center
07:45PM 34.2219 -85.8100 188° South 451 519 33,000  Level Atlanta Center
07:46PM 34.0839 -85.8272 186° South 457 526 33,000  Level Atlanta Center
07:47PM 33.9625 -85.8447 187° South 457 526 33,000  Level Atlanta Center
07:48PM 33.8372 -85.8494 182° South 457 526 33,000  Level Atlanta Center
07:49PM 33.7119 -85.8544 182° South 452 520 33,000  Level Atlanta Center
07:50PM 33.5911 -85.8494 178° South 440 506 33,000  Level Atlanta Center
07:51PM 33.4719 -85.8592 184° South 440 506 33,000  Level Atlanta Center
07:52PM 33.3558 -85.8119 161° South 435 501 33,000  Level Atlanta Center
07:53PM 33.2439 -85.7550 157° South 435 501 33,000  Level Atlanta Center
07:54PM 33.1319 -85.6933 155° Southeast 442 509 33,000  Level Atlanta Center
07:55PM 33.0158 -85.6342 157° South 448 516 33,000  Level Atlanta Center
07:56PM 32.8997 -85.5703 155° Southeast 454 522 33,000  Level Atlanta Center
07:57PM 32.7856 -85.5114 157° South 454 522 33,000  Level Atlanta Center
07:58PM 32.6592 -85.4453 156° South 454 522 33,000  Level Atlanta Center
07:59PM 32.5450 -85.3842 156° South 454 522 33,000  Level Atlanta Center
08:00PM 32.4308 -85.3258 157° South 454 522 33,000  Level Atlanta Center
08:03PM 32.1561 -85.1869 157° South 466 536 33,000  Level Jacksonville Center
08:04PM 32.0300 -85.1200 156° South 461 531 33,000  Level Jacksonville Center
08:05PM 31.9119 -85.0611 157° South 461 531 33,000  Level Jacksonville Center
08:06PM 31.7942 -85.0019 157° South 456 525 33,000  Level Jacksonville Center
08:07PM 31.6803 -84.9311 152° Southeast 456 525 33,000  Level Jacksonville Center
08:08PM 31.5644 -84.8628 153° Southeast 462 532 33,000  Level Jacksonville Center
08:09PM 31.4486 -84.7944 153° Southeast 462 532 33,000  Level Jacksonville Center
08:10PM 31.3308 -84.7239 153° Southeast 462 532 33,000  Level Jacksonville Center
08:11PM 31.2169 -84.6561 153° Southeast 462 532 33,000  Level Jacksonville Center
08:12PM 31.0989 -84.5861 153° Southeast 462 532 33,000  Level Jacksonville Center
08:13PM 30.9828 -84.5208 154° Southeast 462 532 33,000  Level Jacksonville Center
08:14PM 30.8686 -84.4536 153° Southeast 462 532 33,000  Level Jacksonville Center
08:15PM 30.7525 -84.3842 153° Southeast 462 532 33,000  Level Jacksonville Center
08:16PM 30.6344 -84.3194 155° Southeast 467 537 33,000  Level Jacksonville Center
08:17PM 30.5347 -84.2578 152° Southeast 467 537 33,000 -60 Level Jacksonville Center
08:18PM 30.4186 -84.1908 154° Southeast 460 529 32,900 -60 Descending Jacksonville Center
08:19PM 30.2961 -84.1194 153° Southeast 460 529 32,900  Level Jacksonville Center
08:20PM 30.1756 -84.0531 155° Southeast 465 535 33,000  Climbing Jacksonville Center
08:21PM 30.0614 -83.9869 153° Southeast 465 535 32,900  Descending Jacksonville Center
08:22PM 29.9472 -83.9208 153° Southeast 460 529 33,000  Climbing Jacksonville Center
08:23PM 29.8328 -83.8575 154° Southeast 460 529 32,900 -60 Descending Jacksonville Center
08:24PM 29.7183 -83.7917 153° Southeast 460 529 32,900  Level Jacksonville Center
08:25PM 29.6144 -83.7311 153° Southeast 465 535 33,000 -420 Climbing Jacksonville Center
08:26PM 29.5000 -83.6681 154° Southeast 460 529 32,100 -1,500 Descending Jacksonville Center
08:27PM 29.3878 -83.6053 154° Southeast 460 529 30,100 -2,040 Descending Jacksonville Center
08:28PM 29.2817 -83.5425 153° Southeast 444 511 28,100 -1,980 Descending Jacksonville Center
08:29PM 29.1794 -83.4825 153° Southeast 431 496 26,200 -1,800 Descending Jacksonville Center
08:30PM 29.0797 -83.4200 151° Southeast 413 475 24,500 -1,680 Descending Jacksonville Center
08:31PM 28.9839 -83.3603 151° Southeast 407 468 22,900 -1,740 Descending Jacksonville Center
08:32PM 28.8861 -83.2956 150° Southeast 402 463 21,100 -1,800 Descending Jacksonville Center
08:33PM 28.7839 -83.2314 151° Southeast 407 468 19,400 -1,860 Descending Jacksonville Center
08:35PM 28.5664 -83.0925 151° Southeast 415 478 15,500 -1,800 Descending Miami Center
08:36PM 28.4833 -83.0500 156° South 374 430 14,100 -1,680 Descending Tampa TRACON
08:37PM 28.4000 -82.9833 145° Southeast 350 403 12,400 -1,860 Descending Tampa TRACON
08:38PM 28.3000 -82.9333 156° South 340 391 10,200 -1,500 Descending Tampa TRACON
08:39PM 28.2167 -82.8833 152° Southeast 312 359 9,300 -1,140 Descending Tampa TRACON
08:40PM 28.1500 -82.8500 156° South 284 327 8,000 -1,440 Descending Tampa TRACON
08:41PM 28.0667 -82.8333 170° South 286 329 6,500 -1,440 Descending Tampa TRACON
08:42PM 28.0000 -82.8167 168° South 271 312 5,200 -1,260 Descending Tampa TRACON
08:43PM 27.9333 -82.8000 168° South 238 274 4,000 -1,140 Descending Tampa TRACON
08:44PM 27.8667 -82.7833 168° South 216 249 3,000 -900 Descending Tampa TRACON
08:45PM 27.8333 -82.7500 139° Southeast 192 221 2,300 -900 Descending Tampa TRACON
08:46PM 27.8333 -82.7000 90° East 164 189 1,300 -900 Descending Tampa TRACON
08:47PM 27.8667 -82.6833 24° Northeast 144 166 600 -720 Descending Tampa TRACON